Time;durP1;ratioP1;P1;durP2;ratioP2;P2;SDS_P1;SDS_P2;PMS_P1;PMS_P2;Temp;Humidity;BMP_temperature;BMP_pressure;BME280_temperature;BME280_humidity;BME280_pressure;Samples;Min_cycle;Max_cycle;Signal;HPM_P1;HPM_P2
2022/08/14 00:03:22;;;;;;;9.55;8.52;;;10.70;99.90;;;;;;8394373;28;20112;-79
2022/08/14 00:07:22;;;;;;;9.95;7.75;;;10.60;99.90;;;;;;8394414;28;20029;-78
2022/08/14 00:11:23;;;;;;;9.13;7.30;;;10.70;99.90;;;;;;8394475;28;20253;-78
2022/08/14 00:15:33;;;;;;;8.27;7.05;;;11.10;99.90;;;;;;8428249;28;20461;-79
2022/08/14 00:19:34;;;;;;;8.88;7.97;;;11.00;99.90;;;;;;8388592;28;20033;-78
2022/08/14 00:23:34;;;;;;;8.88;7.20;;;10.80;99.90;;;;;;8393743;28;20068;-78
2022/08/14 00:27:36;;;;;;;8.50;7.60;;;10.80;99.90;;;;;;8390357;28;20035;-77
2022/08/14 00:31:36;;;;;;;8.48;7.35;;;10.50;99.90;;;;;;8393099;28;20503;-78
2022/08/14 00:35:37;;;;;;;9.05;7.72;;;10.30;99.90;;;;;;8392472;28;20035;-78
2022/08/14 00:39:38;;;;;;;11.27;8.15;;;10.40;99.90;;;;;;8393117;28;20480;-79
2022/08/14 00:43:38;;;;;;;8.20;7.10;;;10.50;99.90;;;;;;8393238;28;20041;-78
2022/08/14 00:47:41;;;;;;;10.70;7.03;;;10.50;99.90;;;;;;8393147;28;20060;-78
2022/08/14 00:51:43;;;;;;;10.05;8.20;;;10.60;99.90;;;;;;8393251;28;20028;-79
2022/08/14 00:55:46;;;;;;;9.18;7.80;;;10.50;99.90;;;;;;8386648;28;20032;-79
2022/08/14 00:59:46;;;;;;;7.97;6.85;;;10.50;99.90;;;;;;8389780;28;20107;-78
2022/08/14 01:03:47;;;;;;;8.00;6.47;;;10.40;99.90;;;;;;8391889;28;20024;-78
2022/08/14 01:07:56;;;;;;;8.18;7.15;;;10.20;99.90;;;;;;8392923;28;20463;-78
2022/08/14 01:11:57;;;;;;;9.07;6.70;;;10.20;99.90;;;;;;8393784;28;20024;-78
2022/08/14 01:16:01;;;;;;;9.63;6.60;;;10.20;99.90;;;;;;8391771;28;20048;-78
2022/08/14 01:24:22;;;;;;;7.70;6.15;;;10.10;99.90;;;;;;8392801;28;20687;-77
2022/08/14 01:28:27;;;;;;;6.85;6.07;;;10.10;99.90;;;;;;8388861;28;20028;-78
2022/08/14 01:32:27;;;;;;;6.93;5.55;;;10.20;99.90;;;;;;8391098;28;20396;-78
2022/08/14 01:36:35;;;;;;;6.95;6.25;;;10.10;99.90;;;;;;8390219;28;20036;-77
2022/08/14 01:40:35;;;;;;;7.43;6.35;;;10.00;99.90;;;;;;8392252;28;20048;-78
2022/08/14 01:44:37;;;;;;;7.32;6.00;;;9.90;99.90;;;;;;8392380;28;20668;-78
2022/08/14 01:48:43;;;;;;;7.20;5.63;;;10.00;99.90;;;;;;8392106;28;20059;-78
2022/08/14 01:52:43;;;;;;;6.03;5.43;;;10.10;99.90;;;;;;8392467;28;20036;-78
2022/08/14 01:56:44;;;;;;;9.45;5.38;;;9.90;99.90;;;;;;8387566;28;20087;-78
2022/08/14 02:00:45;;;;;;;6.63;5.65;;;10.10;99.90;;;;;;8390969;28;20047;-77
2022/08/14 02:04:46;;;;;;;6.18;5.22;;;10.20;99.90;;;;;;8391835;28;20021;-78
2022/08/14 02:08:46;;;;;;;6.75;5.35;;;10.00;99.90;;;;;;8390453;28;20111;-78
2022/08/14 02:12:48;;;;;;;6.88;5.47;;;9.80;99.90;;;;;;8390882;28;20041;-77
2022/08/14 02:16:52;;;;;;;6.30;5.47;;;9.70;99.90;;;;;;8393233;28;20025;-77
2022/08/14 02:20:53;;;;;;;7.75;5.18;;;9.70;99.90;;;;;;8396762;28;20135;-78
2022/08/14 02:24:54;;;;;;;6.72;5.55;;;9.70;99.90;;;;;;8396356;28;20025;-78
2022/08/14 02:29:05;;;;;;;6.40;5.20;;;9.60;99.90;;;;;;8395864;28;20229;-78
2022/08/14 02:33:06;;;;;;;8.82;6.45;;;9.30;99.90;;;;;;8396191;28;20588;-77
2022/08/14 02:37:09;;;;;;;9.05;5.88;;;9.30;99.90;;;;;;8396230;28;20024;-77
2022/08/14 02:41:12;;;;;;;8.00;6.65;;;9.30;99.90;;;;;;8397447;28;20028;-78
2022/08/14 02:45:13;;;;;;;7.70;6.30;;;9.10;99.90;;;;;;8428999;28;20123;-78
2022/08/14 02:49:14;;;;;;;8.75;6.95;;;9.00;99.90;;;;;;8397382;28;20054;-78
2022/08/14 02:53:15;;;;;;;10.52;6.45;;;9.00;99.90;;;;;;8395075;28;20496;-78
2022/08/14 02:57:17;;;;;;;7.88;6.68;;;9.00;99.90;;;;;;8391513;28;20024;-78
2022/08/14 03:01:20;;;;;;;6.93;6.22;;;9.30;99.90;;;;;;8395354;28;20035;-78
2022/08/14 03:05:22;;;;;;;8.82;6.35;;;9.40;99.90;;;;;;8396601;28;20033;-78
2022/08/14 03:09:23;;;;;;;8.75;6.78;;;9.40;99.90;;;;;;8396964;28;20038;-78
2022/08/14 03:13:23;;;;;;;8.93;6.15;;;9.40;99.90;;;;;;8394849;28;20032;-78
2022/08/14 03:17:24;;;;;;;9.40;6.03;;;9.30;99.90;;;;;;8396455;28;20048;-78
2022/08/14 03:21:25;;;;;;;9.30;6.93;;;9.10;99.90;;;;;;8396210;28;20098;-78
2022/08/14 03:25:25;;;;;;;9.82;5.97;;;9.00;99.90;;;;;;8394066;28;20037;-78
2022/08/14 03:29:27;;;;;;;6.88;6.13;;;8.80;99.90;;;;;;8392634;28;20021;-79
2022/08/14 03:33:28;;;;;;;7.28;6.20;;;8.70;99.90;;;;;;8395681;28;20153;-78
2022/08/14 03:37:29;;;;;;;7.50;6.22;;;8.60;99.90;;;;;;8395415;28;20024;-77
2022/08/14 03:41:31;;;;;;;8.77;7.13;;;8.50;99.90;;;;;;8394037;28;20382;-77
2022/08/14 03:45:34;;;;;;;10.90;7.30;;;8.60;99.90;;;;;;8393840;28;20036;-78
2022/08/14 03:49:35;;;;;;;8.48;6.72;;;8.80;99.90;;;;;;8395463;28;20055;-78
2022/08/14 03:53:37;;;;;;;10.15;6.68;;;8.70;99.90;;;;;;8394806;28;20036;-78
2022/08/14 03:57:39;;;;;;;10.13;7.20;;;8.60;99.90;;;;;;8387801;28;20044;-78
2022/08/14 04:01:40;;;;;;;8.95;6.22;;;8.50;99.90;;;;;;8394751;28;20108;-78
2022/08/14 04:05:41;;;;;;;8.63;6.45;;;8.50;99.90;;;;;;8393028;28;20025;-78
2022/08/14 04:09:41;;;;;;;11.50;8.00;;;8.30;99.90;;;;;;8392163;28;20622;-78
2022/08/14 04:13:43;;;;;;;8.63;6.93;;;8.30;99.90;;;;;;8392812;28;20016;-78
2022/08/14 04:17:44;;;;;;;8.77;6.65;;;8.50;99.90;;;;;;8392286;28;20048;-77
2022/08/14 04:21:44;;;;;;;9.98;7.15;;;8.40;99.90;;;;;;8393289;28;20385;-78
2022/08/14 04:25:46;;;;;;;10.20;7.45;;;8.30;99.90;;;;;;8392287;28;20468;-77
2022/08/14 04:29:46;;;;;;;9.90;7.05;;;8.40;99.90;;;;;;8389209;28;20059;-77
2022/08/14 04:33:47;;;;;;;10.25;7.72;;;8.70;99.90;;;;;;8393504;28;20040;-77
2022/08/14 04:46:27;;;;;;;8.80;7.05;;;8.90;99.90;;;;;;8393226;28;20173;-78
2022/08/14 04:50:28;;;;;;;10.00;7.20;;;9.00;99.90;;;;;;8393176;28;20028;-77
2022/08/14 04:54:28;;;;;;;9.82;7.05;;;9.20;99.90;;;;;;8391044;28;20044;-77
2022/08/14 04:58:31;;;;;;;8.25;6.47;;;9.30;99.90;;;;;;8389682;28;20082;-77
2022/08/14 05:02:33;;;;;;;9.00;6.85;;;9.50;99.90;;;;;;8390842;28;20272;-77
2022/08/14 05:06:33;;;;;;;11.05;7.00;;;9.80;99.90;;;;;;8390502;28;20507;-78
2022/08/14 05:10:40;;;;;;;8.93;6.88;;;10.10;99.90;;;;;;8391373;28;20028;-78
2022/08/14 05:14:42;;;;;;;9.02;6.38;;;10.60;99.90;;;;;;8390573;28;20111;-77
2022/08/14 05:18:45;;;;;;;7.55;6.25;;;10.90;99.90;;;;;;8389759;28;20017;-78
2022/08/14 05:22:46;;;;;;;9.20;6.38;;;11.00;99.90;;;;;;8389735;28;20448;-77
2022/08/14 05:26:46;;;;;;;7.35;6.35;;;11.30;99.90;;;;;;8386758;28;20037;-77
2022/08/14 05:30:50;;;;;;;8.90;6.25;;;11.70;99.90;;;;;;8390778;28;20036;-77
2022/08/14 05:34:50;;;;;;;7.82;6.32;;;12.20;99.90;;;;;;8389911;28;20029;-77
2022/08/14 05:38:51;;;;;;;8.27;6.10;;;12.50;99.90;;;;;;8389526;28;20590;-77
2022/08/14 05:42:52;;;;;;;12.75;6.28;;;12.80;99.90;;;;;;8387809;28;20444;-78
2022/08/14 05:46:53;;;;;;;8.18;6.35;;;12.60;99.90;;;;;;8386871;28;20032;-78
2022/08/14 05:50:54;;;;;;;9.48;6.50;;;12.80;99.90;;;;;;8388804;28;20033;-78
2022/08/14 05:54:56;;;;;;;8.45;6.40;;;13.50;99.90;;;;;;8384349;28;20602;-78
2022/08/14 05:58:58;;;;;;;7.05;6.25;;;13.90;99.90;;;;;;8387699;28;20040;-78
2022/08/14 06:03:00;;;;;;;6.00;5.40;;;15.30;99.90;;;;;;8389331;28;20459;-78
2022/08/14 06:07:00;;;;;;;5.80;5.18;;;16.60;99.90;;;;;;8409924;28;20029;-79
2022/08/14 06:11:04;;;;;;;7.00;5.15;;;17.50;99.90;;;;;;8390201;28;20032;-78
2022/08/14 06:15:08;;;;;;;7.03;5.25;;;17.90;99.90;;;;;;8392897;28;20604;-79
2022/08/14 06:19:08;;;;;;;5.55;5.05;;;18.60;99.90;;;;;;8393536;28;20020;-79
2022/08/14 06:23:09;;;;;;;5.22;4.70;;;19.30;99.90;;;;;;8391420;28;20024;-79
2022/08/14 06:27:10;;;;;;;5.22;4.50;;;20.40;99.90;;;;;;8383842;28;20024;-78
2022/08/14 06:31:10;;;;;;;5.28;4.22;;;20.70;99.90;;;;;;8381923;28;20047;-78
2022/08/14 06:35:19;;;;;;;4.50;4.10;;;21.20;99.90;;;;;;8385424;28;20114;-78
2022/08/14 06:39:19;;;;;;;8.07;4.20;;;21.50;99.90;;;;;;8386765;28;20087;-78
2022/08/14 06:43:21;;;;;;;5.07;3.90;;;21.30;99.90;;;;;;8390279;28;20025;-78
2022/08/14 06:47:22;;;;;;;5.00;3.90;;;21.60;99.90;;;;;;8388409;28;20036;-79
2022/08/14 06:51:23;;;;;;;4.40;4.00;;;22.40;99.90;;;;;;8389498;28;20056;-78
2022/08/14 06:55:24;;;;;;;3.95;3.55;;;23.10;99.90;;;;;;8388392;28;20064;-79
2022/08/14 06:59:24;;;;;;;4.25;3.72;;;23.70;99.90;;;;;;8388084;28;20021;-78
2022/08/14 07:07:45;;;;;;;4.38;3.58;;;23.80;99.90;;;;;;8393704;28;20051;-78
2022/08/14 07:11:46;;;;;;;5.22;4.03;;;24.20;99.90;;;;;;8393581;28;20020;-78
2022/08/14 07:15:49;;;;;;;4.18;3.10;;;23.90;99.90;;;;;;8393818;28;20094;-78
2022/08/14 07:19:50;;;;;;;4.03;2.97;;;23.80;99.90;;;;;;8395223;28;20480;-78
2022/08/14 07:23:50;;;;;;;3.15;2.85;;;23.70;99.90;;;;;;8392877;28;20028;-78
2022/08/14 07:27:51;;;;;;;2.95;2.65;;;24.40;99.90;;;;;;8393181;28;20418;-78
2022/08/14 07:31:52;;;;;;;3.00;2.70;;;24.50;99.90;;;;;;8394897;28;20137;-78
2022/08/14 07:35:54;;;;;;;3.45;2.65;;;24.50;99.90;;;;;;8393109;28;20035;-78
2022/08/14 07:39:54;;;;;;;3.00;2.50;;;24.80;99.90;;;;;;8393607;28;20103;-78
2022/08/14 07:43:55;;;;;;;2.65;2.45;;;25.10;99.90;;;;;;8387301;28;20032;-79
2022/08/14 07:47:56;;;;;;;2.35;1.92;;;25.90;99.90;;;;;;8388310;28;20119;-79
2022/08/14 07:51:58;;;;;;;3.20;2.10;;;26.10;96.50;;;;;;8391628;28;20036;-79
2022/08/14 07:55:59;;;;;;;3.13;2.40;;;26.80;93.80;;;;;;8386345;28;20056;-79
2022/08/14 08:00:00;;;;;;;2.47;2.13;;;27.20;92.70;;;;;;8387524;28;20107;-80
2022/08/14 08:04:03;;;;;;;2.25;2.05;;;27.00;92.70;;;;;;8391231;28;20523;-79
2022/08/14 08:08:05;;;;;;;2.15;1.95;;;26.50;92.70;;;;;;8393443;28;20067;-77
2022/08/14 08:12:06;;;;;;;2.50;2.30;;;26.70;91.20;;;;;;8390670;28;20583;-77
2022/08/14 08:16:07;;;;;;;2.65;2.38;;;26.70;95.10;;;;;;8389606;28;20028;-78
2022/08/14 08:20:14;;;;;;;2.55;2.35;;;26.90;93.50;;;;;;8390393;28;20059;-78
2022/08/14 08:24:15;;;;;;;4.28;2.20;;;27.40;90.80;;;;;;8390860;28;20149;-78
2022/08/14 08:28:20;;;;;;;2.63;2.15;;;27.80;92.60;;;;;;8387645;28;20032;-77
2022/08/14 08:32:21;;;;;;;1.92;1.83;;;28.00;88.00;;;;;;8391911;28;20025;-78
2022/08/14 08:36:21;;;;;;;2.40;2.15;;;28.60;86.30;;;;;;8414283;28;20025;-78
2022/08/14 08:40:34;;;;;;;2.25;2.05;;;28.40;85.20;;;;;;8411723;28;20465;-79
2022/08/14 08:44:35;;;;;;;2.20;2.00;;;28.50;86.80;;;;;;8383622;28;20029;-79
2022/08/14 08:48:55;;;;;;;2.10;1.90;;;28.50;86.60;;;;;;8385233;28;20051;-78
2022/08/14 08:53:00;;;;;;;2.42;2.22;;;28.20;84.50;;;;;;8377298;28;20113;-79
2022/08/14 08:57:02;;;;;;;2.45;2.00;;;28.30;81.00;;;;;;8374114;28;20499;-78
2022/08/14 09:01:03;;;;;;;2.03;1.80;;;28.70;83.60;;;;;;8346621;28;20457;-78
2022/08/14 09:05:04;;;;;;;2.25;2.05;;;28.90;81.00;;;;;;8344685;28;20065;-79
2022/08/14 09:09:23;;;;;;;2.75;1.90;;;28.90;77.80;;;;;;8329889;28;20040;-78
2022/08/14 09:13:25;;;;;;;2.20;2.00;;;28.90;83.90;;;;;;8338167;28;20101;-78
2022/08/14 09:17:26;;;;;;;2.15;1.95;;;29.00;81.90;;;;;;8341542;28;20109;-77
2022/08/14 09:21:27;;;;;;;2.00;1.90;;;29.30;78.40;;;;;;8325847;28;20806;-79
2022/08/14 09:25:28;;;;;;;1.92;1.80;;;29.10;83.30;;;;;;8345200;28;20124;-80
2022/08/14 09:29:28;;;;;;;1.70;1.60;;;29.10;77.30;;;;;;8346182;28;20032;-78
2022/08/14 09:33:44;;;;;;;1.42;1.33;;;28.60;79.50;;;;;;8349673;28;20025;-77
2022/08/14 09:38:09;;;;;;;1.58;1.48;;;29.00;75.00;;;;;;8348918;28;20044;-77
2022/08/14 09:42:36;;;;;;;1.92;1.75;;;29.30;73.00;;;;;;8317729;28;20026;-80
2022/08/14 09:46:37;;;;;;;1.50;1.40;;;29.30;73.10;;;;;;8331486;28;20059;-79
2022/08/14 09:50:57;;;;;;;2.03;1.55;;;29.20;73.00;;;;;;8344376;28;20032;-79
2022/08/14 09:54:57;;;;;;;2.20;1.87;;;29.40;74.50;;;;;;8329350;28;20083;-80
2022/08/14 09:59:13;;;;;;;1.73;1.63;;;29.60;73.60;;;;;;8313584;28;20030;-78
2022/08/14 10:03:33;;;;;;;1.80;1.70;;;28.80;71.50;;;;;;8321744;28;20116;-78
2022/08/14 10:07:35;;;;;;;3.47;3.00;;;28.40;75.70;;;;;;8323896;28;20021;-78
2022/08/14 10:11:37;;;;;;;3.00;2.55;;;28.70;75.20;;;;;;8322950;28;20056;-79
2022/08/14 10:15:44;;;;;;;2.15;1.95;;;28.90;71.20;;;;;;8322742;28;20032;-79
2022/08/14 10:19:48;;;;;;;2.13;1.90;;;28.60;75.60;;;;;;8323055;28;20059;-77
2022/08/14 10:23:51;;;;;;;3.15;2.00;;;28.60;69.00;;;;;;8321580;28;20061;-78
2022/08/14 10:27:57;;;;;;;2.55;1.85;;;29.00;74.80;;;;;;8321283;28;20436;-77
2022/08/14 10:31:59;;;;;;;1.92;1.83;;;29.40;71.40;;;;;;8324593;28;20648;-78
2022/08/14 10:36:00;;;;;;;2.22;1.65;;;29.60;68.30;;;;;;8320267;28;20025;-79
2022/08/14 10:40:01;;;;;;;2.50;1.88;;;30.20;66.00;;;;;;8343681;28;20504;-77
2022/08/14 10:44:13;;;;;;;2.45;1.70;;;31.30;64.50;;;;;;8345671;28;20021;-77
2022/08/14 10:48:16;;;;;;;2.95;1.90;;;31.90;59.00;;;;;;8353412;28;20025;-79
2022/08/14 10:52:23;;;;;;;3.70;1.63;;;31.20;61.40;;;;;;8356179;28;20116;-79
2022/08/14 10:56:32;;;;;;;2.20;1.83;;;31.90;61.00;;;;;;8348678;28;20040;-77
2022/08/14 11:00:32;;;;;;;1.88;1.60;;;32.60;59.00;;;;;;8351751;28;20024;-78
2022/08/14 11:04:34;;;;;;;1.83;1.70;;;32.80;58.10;;;;;;8336395;28;20032;-78
2022/08/14 11:08:34;;;;;;;1.95;1.73;;;33.60;61.10;;;;;;8334452;28;20108;-79
2022/08/14 11:12:50;;;;;;;1.80;1.70;;;33.70;54.30;;;;;;8337244;28;20492;-79
2022/08/14 11:16:50;;;;;;;1.52;1.42;;;33.70;53.20;;;;;;8352803;28;20554;-78
2022/08/14 11:20:53;;;;;;;2.53;1.70;;;33.50;52.90;;;;;;8322394;28;20101;-79
2022/08/14 11:24:55;;;;;;;2.20;1.65;;;33.60;53.40;;;;;;8323373;28;20588;-77
2022/08/14 11:28:58;;;;;;;1.92;1.83;;;34.50;52.60;;;;;;8340653;28;20026;-78
2022/08/14 11:32:59;;;;;;;1.80;1.70;;;34.20;52.00;;;;;;8341038;28;20052;-79
2022/08/14 11:37:13;;;;;;;3.45;1.70;;;33.90;51.10;;;;;;8323467;28;20076;-78
2022/08/14 11:41:17;;;;;;;2.13;1.92;;;34.80;53.40;;;;;;8336980;28;20124;-78
2022/08/14 11:45:18;;;;;;;2.20;1.80;;;35.50;52.00;;;;;;8324779;28;20032;-77
2022/08/14 11:49:30;;;;;;;2.00;1.80;;;36.20;49.80;;;;;;8322881;28;20049;-77
2022/08/14 11:53:30;;;;;;;2.85;1.80;;;36.00;47.40;;;;;;8322847;28;20099;-78
2022/08/14 11:57:31;;;;;;;3.17;1.80;;;35.90;48.20;;;;;;8322262;28;20029;-78
2022/08/14 12:01:31;;;;;;;2.95;1.80;;;36.50;44.70;;;;;;8321174;28;20029;-77
2022/08/14 12:05:35;;;;;;;2.10;2.00;;;36.60;44.40;;;;;;8322843;28;20033;-77
2022/08/14 12:09:38;;;;;;;1.63;1.52;;;37.00;43.00;;;;;;8314467;28;20125;-78
2022/08/14 12:13:40;;;;;;;1.70;1.60;;;36.00;42.20;;;;;;8321387;28;20029;-77
2022/08/14 12:17:52;;;;;;;2.85;1.90;;;36.30;42.50;;;;;;8318998;28;20096;-78
2022/08/14 12:21:52;;;;;;;1.77;1.67;;;36.30;40.10;;;;;;8318482;28;20021;-77
2022/08/14 12:26:03;;;;;;;1.77;1.67;;;36.10;44.70;;;;;;8320969;28;20032;-77
2022/08/14 12:30:05;;;;;;;2.20;1.60;;;36.30;44.70;;;;;;8320511;28;20122;-77
2022/08/14 12:34:07;;;;;;;2.67;1.63;;;37.50;40.10;;;;;;8318896;28;20037;-77
2022/08/14 12:38:12;;;;;;;1.60;1.50;;;38.40;40.50;;;;;;8321246;28;20513;-79
2022/08/14 12:42:14;;;;;;;1.80;1.70;;;38.40;40.00;;;;;;8318756;28;20406;-76
2022/08/14 12:46:30;;;;;;;1.90;1.80;;;38.60;39.50;;;;;;8320974;28;20036;-78
2022/08/14 12:50:41;;;;;;;1.50;1.40;;;38.30;40.90;;;;;;8328010;28;20024;-77
2022/08/14 12:54:42;;;;;;;1.98;1.60;;;38.70;41.20;;;;;;8336229;28;20033;-78
2022/08/14 12:58:52;;;;;;;2.45;1.75;;;38.50;38.20;;;;;;8337992;28;20040;-77
2022/08/14 13:02:54;;;;;;;1.83;1.73;;;38.60;42.00;;;;;;8335812;28;20109;-78
2022/08/14 13:06:55;;;;;;;2.17;1.58;;;39.10;36.40;;;;;;8343413;28;20045;-77
2022/08/14 13:10:58;;;;;;;2.00;1.80;;;37.90;41.00;;;;;;8341889;28;20029;-78
2022/08/14 13:14:59;;;;;;;1.80;1.63;;;37.30;39.00;;;;;;8343304;28;20033;-78
2022/08/14 13:19:00;;;;;;;1.60;1.50;;;37.40;40.30;;;;;;8344791;28;20083;-78
2022/08/14 13:23:02;;;;;;;2.28;1.90;;;38.00;38.40;;;;;;8341770;28;20025;-78
2022/08/14 13:27:04;;;;;;;2.10;1.90;;;37.10;41.20;;;;;;8341722;28;20549;-78
2022/08/14 13:31:08;;;;;;;1.58;1.48;;;37.40;37.30;;;;;;8335999;28;20051;-77
2022/08/14 13:35:09;;;;;;;1.65;1.55;;;38.80;40.10;;;;;;8344519;28;20020;-77
2022/08/14 13:39:13;;;;;;;2.58;1.60;;;40.00;37.70;;;;;;8340779;28;20032;-77
2022/08/14 13:43:16;;;;;;;1.58;1.48;;;41.00;33.30;;;;;;8342119;28;20607;-77
2022/08/14 13:47:18;;;;;;;3.25;1.60;;;40.50;36.50;;;;;;8340776;28;20025;-79
2022/08/14 13:51:24;;;;;;;1.70;1.58;;;40.60;35.00;;;;;;8344082;28;20040;-79
2022/08/14 13:55:28;;;;;;;1.58;1.45;;;39.80;34.30;;;;;;8338825;28;20151;-79
2022/08/14 13:59:33;;;;;;;1.63;1.52;;;40.10;36.50;;;;;;8334560;28;20037;-78
2022/08/14 14:03:34;;;;;;;2.58;1.88;;;40.50;34.30;;;;;;8365476;28;20025;-78
2022/08/14 14:07:35;;;;;;;1.40;1.30;;;39.40;36.70;;;;;;8377758;28;20035;-79
2022/08/14 14:11:36;;;;;;;1.60;1.50;;;38.70;34.40;;;;;;8343084;28;20033;-78
2022/08/14 14:15:37;;;;;;;3.08;1.70;;;37.50;36.10;;;;;;8339453;28;20177;-78
2022/08/14 14:19:45;;;;;;;1.88;1.48;;;36.70;36.60;;;;;;8346388;28;20037;-78
2022/08/14 14:23:46;;;;;;;2.50;1.50;;;36.90;37.60;;;;;;8334914;28;20042;-79
2022/08/14 14:27:48;;;;;;;1.83;1.52;;;37.50;35.50;;;;;;8341311;28;20066;-78
2022/08/14 14:31:50;;;;;;;3.70;1.90;;;38.70;34.50;;;;;;8343798;28;20032;-78
2022/08/14 14:35:51;;;;;;;1.70;1.60;;;38.30;36.20;;;;;;8342240;28;20033;-78
2022/08/14 14:39:54;;;;;;;2.28;1.42;;;38.60;35.70;;;;;;8352856;28;20024;-78
2022/08/14 14:43:57;;;;;;;2.58;1.60;;;39.20;35.40;;;;;;8340175;28;20033;-78
2022/08/14 14:47:59;;;;;;;1.50;1.40;;;36.90;36.60;;;;;;8320583;28;20472;-78
2022/08/14 14:52:02;;;;;;;1.60;1.50;;;36.90;38.70;;;;;;8334965;28;20028;-77
2022/08/14 14:56:03;;;;;;;1.70;1.60;;;35.80;38.20;;;;;;8336345;28;20018;-78
2022/08/14 15:00:15;;;;;;;2.70;1.58;;;36.20;38.00;;;;;;8347865;28;20039;-78
2022/08/14 15:04:16;;;;;;;1.50;1.40;;;36.10;38.80;;;;;;8342474;28;20045;-78
2022/08/14 15:08:16;;;;;;;1.60;1.50;;;35.00;40.10;;;;;;8341819;28;20024;-78
2022/08/14 15:12:17;;;;;;;1.60;1.50;;;33.80;40.90;;;;;;8339220;28;20029;-77
2022/08/14 15:16:19;;;;;;;1.48;1.38;;;33.60;44.70;;;;;;8347392;28;20037;-78
2022/08/14 15:20:20;;;;;;;1.70;1.60;;;33.20;44.10;;;;;;8346718;28;20021;-78
2022/08/14 15:24:21;;;;;;;2.50;1.45;;;32.80;45.70;;;;;;8352011;28;20493;-79
2022/08/14 15:28:22;;;;;;;7.70;1.85;;;32.30;45.10;;;;;;8341286;28;20167;-79
2022/08/14 15:32:23;;;;;;;1.60;1.50;;;32.00;46.30;;;;;;8370689;28;20148;-79
2022/08/14 15:36:27;;;;;;;1.73;1.60;;;32.40;46.70;;;;;;8347662;28;20058;-79
2022/08/14 15:40:28;;;;;;;1.90;1.50;;;33.60;44.80;;;;;;8339154;28;20498;-78
2022/08/14 15:44:30;;;;;;;1.65;1.55;;;35.00;42.70;;;;;;8349051;28;20040;-79
2022/08/14 15:48:30;;;;;;;1.52;1.42;;;35.50;38.90;;;;;;8341651;28;20025;-79
2022/08/14 15:52:32;;;;;;;1.73;1.50;;;35.40;39.90;;;;;;8346095;28;20495;-79
2022/08/14 15:56:32;;;;;;;2.08;1.65;;;33.60;42.50;;;;;;8335932;28;20034;-79
2022/08/14 16:04:55;;;;;;;1.67;1.50;;;31.60;45.30;;;;;;8347119;28;20079;-79
2022/08/14 16:08:56;;;;;;;2.50;1.88;;;31.20;46.20;;;;;;8340323;28;20033;-79
2022/08/14 16:12:57;;;;;;;4.00;1.80;;;30.40;47.60;;;;;;8324162;28;20417;-79
2022/08/14 16:16:58;;;;;;;2.20;1.77;;;29.90;49.00;;;;;;8323792;28;20041;-79
2022/08/14 16:21:00;;;;;;;3.05;1.90;;;29.60;53.60;;;;;;8327440;28;20557;-80
2022/08/14 16:25:03;;;;;;;3.38;1.95;;;29.30;56.10;;;;;;8325366;28;20488;-79
2022/08/14 16:29:06;;;;;;;2.00;1.80;;;29.20;56.10;;;;;;8327018;28;20559;-79
2022/08/14 16:33:08;;;;;;;1.92;1.83;;;29.20;56.30;;;;;;8319339;28;20083;-79
2022/08/14 16:37:16;;;;;;;3.13;1.80;;;29.00;57.80;;;;;;8379721;28;20035;-79
2022/08/14 16:41:19;;;;;;;1.98;1.77;;;28.70;59.20;;;;;;8342708;28;20091;-79
2022/08/14 16:45:23;;;;;;;2.55;2.10;;;28.60;60.70;;;;;;8347556;28;20032;-79
2022/08/14 16:49:24;;;;;;;3.72;2.17;;;28.40;60.60;;;;;;8350083;28;20543;-79
2022/08/14 16:53:25;;;;;;;2.92;2.17;;;28.20;61.00;;;;;;8341689;28;20033;-79
2022/08/14 16:57:27;;;;;;;2.38;1.90;;;28.10;59.70;;;;;;8336181;28;20033;-79
2022/08/14 17:01:27;;;;;;;2.40;2.10;;;27.90;61.80;;;;;;8349323;28;20040;-78
2022/08/14 17:05:28;;;;;;;2.35;2.15;;;27.50;60.50;;;;;;8348173;28;20525;-79
2022/08/14 17:09:51;;;;;;;2.58;1.80;;;27.30;64.00;;;;;;8346558;28;20486;-79
2022/08/14 17:13:52;;;;;;;2.50;2.00;;;26.90;65.10;;;;;;8369339;28;20079;-78
2022/08/14 17:17:52;;;;;;;2.38;2.10;;;26.50;64.60;;;;;;8341277;28;20087;-79
2022/08/14 17:21:53;;;;;;;2.17;2.03;;;26.10;64.40;;;;;;8346903;28;20025;-78
2022/08/14 17:25:53;;;;;;;5.38;2.53;;;25.80;67.50;;;;;;8337769;28;20022;-78
2022/08/14 17:29:55;;;;;;;2.72;2.20;;;25.50;68.20;;;;;;8318964;28;20041;-79
2022/08/14 17:33:58;;;;;;;2.53;2.33;;;25.30;69.90;;;;;;8323937;28;20029;-78
2022/08/14 17:38:08;;;;;;;2.97;2.55;;;24.90;74.60;;;;;;8321989;28;20092;-78
2022/08/14 17:42:09;;;;;;;3.63;2.70;;;24.30;77.30;;;;;;8321249;28;20029;-78
2022/08/14 17:46:09;;;;;;;4.82;2.50;;;23.80;80.90;;;;;;8322957;28;20079;-78
2022/08/14 17:50:10;;;;;;;3.97;2.92;;;23.10;88.40;;;;;;8321741;28;20034;-78
2022/08/14 17:54:11;;;;;;;7.25;3.00;;;22.50;91.50;;;;;;8322892;28;20033;-77
2022/08/14 17:58:19;;;;;;;2.95;2.70;;;22.20;95.20;;;;;;8318415;28;20132;-79
2022/08/14 18:02:26;;;;;;;2.95;2.65;;;22.00;96.90;;;;;;8324421;28;20100;-78
2022/08/14 18:06:27;;;;;;;3.63;3.08;;;21.70;99.00;;;;;;8350580;28;20036;-79
2022/08/14 18:10:28;;;;;;;5.03;2.70;;;21.50;99.90;;;;;;8351278;28;20044;-79
2022/08/14 18:14:29;;;;;;;2.90;2.58;;;21.30;99.90;;;;;;8341886;28;20025;-79
2022/08/14 18:18:29;;;;;;;2.58;2.38;;;21.10;99.90;;;;;;8339736;28;20025;-79
2022/08/14 18:22:32;;;;;;;5.80;2.80;;;21.10;99.90;;;;;;8345170;28;20029;-79
2022/08/14 18:26:33;;;;;;;3.10;2.58;;;21.20;99.90;;;;;;8337855;28;20615;-79
2022/08/14 18:30:37;;;;;;;3.03;2.70;;;21.10;99.90;;;;;;8337822;28;20038;-79
2022/08/14 18:34:37;;;;;;;3.60;2.88;;;21.00;99.90;;;;;;8342071;28;20040;-79
2022/08/14 18:38:38;;;;;;;4.15;3.20;;;21.00;99.90;;;;;;8342818;28;20049;-78
2022/08/14 18:42:41;;;;;;;2.85;2.63;;;21.00;99.90;;;;;;8332023;28;20578;-79
2022/08/14 18:47:06;;;;;;;3.70;2.83;;;20.80;99.90;;;;;;8339192;28;20096;-79
2022/08/14 18:51:10;;;;;;;3.60;2.78;;;20.80;99.90;;;;;;8337700;28;21400;-88
2022/08/14 18:55:20;;;;;;;3.55;3.00;;;20.70;99.90;;;;;;8318210;28;20443;-88
2022/08/14 18:59:36;;;;;;;4.90;3.23;;;20.80;99.90;;;;;;8327125;28;20031;-87
2022/08/14 19:03:36;;;;;;;6.78;2.78;;;20.80;99.90;;;;;;8327073;28;20132;-88
2022/08/14 19:07:37;;;;;;;5.57;2.97;;;20.50;99.90;;;;;;8326705;28;20060;-88
2022/08/14 19:11:43;;;;;;;4.32;2.58;;;20.50;99.90;;;;;;8322817;28;20120;-79
2022/08/14 19:15:45;;;;;;;3.67;3.38;;;20.40;99.90;;;;;;8320066;28;20046;-79
2022/08/14 19:20:05;;;;;;;3.97;3.28;;;20.20;99.90;;;;;;8321938;28;20026;-79
2022/08/14 19:24:32;;;;;;;3.30;3.00;;;20.00;99.90;;;;;;8320702;28;20531;-79
2022/08/14 19:28:45;;;;;;;3.50;3.20;;;19.70;99.90;;;;;;8320065;28;20658;-79
2022/08/14 19:32:46;;;;;;;3.83;3.08;;;19.70;99.90;;;;;;8319076;28;20404;-79
2022/08/14 19:36:51;;;;;;;3.78;3.10;;;19.50;99.90;;;;;;8320313;28;20029;-78
2022/08/14 19:40:52;;;;;;;3.67;3.25;;;19.70;99.90;;;;;;8328221;28;20017;-78
2022/08/14 19:44:54;;;;;;;5.30;3.45;;;19.60;99.90;;;;;;8324276;28;20436;-79
2022/08/14 19:48:55;;;;;;;3.90;3.50;;;19.70;99.90;;;;;;8327499;28;20033;-79
2022/08/14 19:53:09;;;;;;;5.65;3.50;;;19.70;99.90;;;;;;8325583;28;20056;-79
2022/08/14 19:57:23;;;;;;;4.03;3.53;;;19.50;99.90;;;;;;8317339;28;20036;-78
2022/08/14 20:01:29;;;;;;;4.70;3.88;;;19.60;99.90;;;;;;8318865;28;20025;-79
2022/08/14 20:05:30;;;;;;;5.13;3.50;;;19.60;99.90;;;;;;8316531;28;20037;-78
2022/08/14 20:09:39;;;;;;;5.57;3.75;;;19.50;99.90;;;;;;8317880;28;20037;-79
2022/08/14 20:13:40;;;;;;;7.53;3.38;;;19.70;99.90;;;;;;8315779;28;20037;-79
2022/08/14 20:17:49;;;;;;;4.10;3.25;;;20.00;99.90;;;;;;8318981;28;20390;-77
2022/08/14 20:22:01;;;;;;;4.88;3.67;;;20.20;99.90;;;;;;8321135;28;20021;-78
2022/08/14 20:26:02;;;;;;;7.03;3.35;;;20.60;99.90;;;;;;8323424;28;20025;-78
2022/08/14 20:30:18;;;;;;;4.50;3.30;;;20.80;99.90;;;;;;8324302;28;20410;-78
2022/08/14 20:34:19;;;;;;;7.13;3.08;;;20.80;99.90;;;;;;8316075;28;20129;-79
2022/08/14 20:38:23;;;;;;;4.80;3.13;;;21.20;99.90;;;;;;8313087;28;20026;-78
2022/08/14 20:46:43;;;;;;;4.53;3.00;;;21.10;99.90;;;;;;8314600;28;20114;-78
2022/08/14 20:50:46;;;;;;;4.15;2.85;;;21.20;99.90;;;;;;8313665;28;20057;-78
2022/08/14 20:54:48;;;;;;;3.13;2.65;;;21.40;99.90;;;;;;8313431;28;20030;-79
2022/08/14 20:58:50;;;;;;;3.30;2.47;;;21.40;99.90;;;;;;8316348;28;20558;-79
2022/08/14 21:02:51;;;;;;;4.10;3.00;;;21.30;99.90;;;;;;8325352;28;20037;-78
2022/08/14 21:06:54;;;;;;;3.78;2.83;;;21.30;99.90;;;;;;8316016;28;20551;-79
2022/08/14 21:10:55;;;;;;;3.70;2.90;;;21.10;99.90;;;;;;8322366;28;21525;-79
2022/08/14 21:14:56;;;;;;;3.42;2.80;;;20.90;99.90;;;;;;8322513;28;20033;-78
2022/08/14 21:18:58;;;;;;;3.47;2.65;;;21.00;99.90;;;;;;8319939;28;20033;-79
2022/08/14 21:22:59;;;;;;;5.82;3.10;;;21.10;99.90;;;;;;8316298;28;20024;-79
2022/08/14 21:27:04;;;;;;;4.85;2.90;;;21.20;99.90;;;;;;8315316;28;20029;-78
2022/08/14 21:31:06;;;;;;;4.07;2.67;;;21.20;99.90;;;;;;8318594;28;20043;-78
2022/08/14 21:35:12;;;;;;;5.13;3.03;;;21.10;99.90;;;;;;8317422;28;20030;-79